createdAt,value
2023-01-13T00:00:38.243Z,100023.81
2023-01-13T00:03:07.097Z,100007.47
2023-01-13T00:05:35.728Z,100004.03
2023-01-13T00:08:04.949Z,99996.34
2023-01-13T00:10:33.313Z,99999.75
2023-01-13T00:13:04.980Z,100003.22
2023-01-13T00:15:33.421Z,100008.47
2023-01-13T00:18:01.815Z,99999.75
2023-01-13T00:20:30.158Z,100011.81
2023-01-13T00:23:00.046Z,100010.13
2023-01-13T00:25:28.351Z,100007.81
2023-01-13T00:27:56.691Z,100011.13
2023-01-13T00:30:26.372Z,100009.34
2023-01-13T00:32:54.747Z,100006.03
2023-01-13T00:35:23.108Z,100004.28
2023-01-13T00:37:51.432Z,99994.78
2023-01-13T00:40:19.817Z,99997.31
2023-01-13T00:43:05.616Z,99998.25
2023-01-13T00:45:35.429Z,100022.41
2023-01-13T00:48:03.742Z,99997.41
2023-01-13T00:50:32.121Z,99997.38
2023-01-13T00:53:01.253Z,99998.97
2023-01-13T00:55:31.920Z,99988.72
2023-01-13T00:58:03.517Z,99999.91
2023-01-13T01:00:32.223Z,99993.94
2023-01-13T01:03:02.268Z,100003.38
2023-01-13T01:05:30.598Z,100000.00
2023-01-13T01:07:58.940Z,100002.69
2023-01-13T01:10:27.303Z,100005.22
2023-01-13T01:12:55.985Z,100006.94
2023-01-13T01:15:24.537Z,99998.28
2023-01-13T01:17:52.816Z,100007.81
2023-01-13T01:20:22.513Z,100009.38
2023-01-13T01:22:50.887Z,100008.63
2023-01-13T01:25:19.202Z,100000.00
2023-01-13T01:27:47.513Z,100005.25
2023-01-13T01:30:16.524Z,99994.88
2023-01-13T01:32:44.901Z,99996.56
2023-01-13T01:35:13.245Z,99999.19
2023-01-13T01:37:42.956Z,99996.53
2023-01-13T01:40:12.589Z,99993.22
2023-01-13T01:43:12.951Z,99985.47
2023-01-13T01:45:41.260Z,99990.63
2023-01-13T01:48:11.037Z,99990.59
2023-01-13T01:50:40.366Z,99981.28
2023-01-13T01:53:14.510Z,99982.00
2023-01-13T01:55:43.602Z,99987.34
2023-01-13T01:58:16.385Z,99982.19
2023-01-13T02:00:45.067Z,99975.22
2023-01-13T02:03:14.648Z,99977.84
2023-01-13T02:05:43.226Z,99981.44
2023-01-13T02:08:15.049Z,99973.75
2023-01-13T02:10:46.199Z,99978.06
2023-01-13T02:13:13.961Z,99976.28
2023-01-13T02:15:48.850Z,99972.75
2023-01-13T02:18:32.649Z,99969.28
2023-01-13T02:21:37.734Z,99986.63
2023-01-13T02:24:47.489Z,99971.88
2023-01-13T02:27:55.405Z,99974.47
2023-01-13T02:30:57.858Z,99974.50
2023-01-13T02:33:38.979Z,99954.56
2023-01-13T02:36:14.612Z,99962.34
2023-01-13T02:38:51.419Z,99960.63
2023-01-13T02:41:44.814Z,99958.00
2023-01-13T02:44:16.685Z,99958.06
2023-01-13T02:46:52.801Z,99971.88
2023-01-13T02:49:29.058Z,99957.97
2023-01-13T02:52:05.086Z,99952.84
2023-01-13T02:54:36.981Z,99951.94
2023-01-13T02:57:08.234Z,99955.34
2023-01-13T02:59:37.830Z,99957.16
2023-01-13T03:02:10.350Z,99958.88
2023-01-13T03:04:50.914Z,99947.63
2023-01-13T03:07:44.592Z,99946.88
2023-01-13T03:10:27.474Z,99962.34
2023-01-13T03:13:03.520Z,99946.78
2023-01-13T03:15:44.260Z,99947.47
2023-01-13T03:18:27.264Z,99944.84
2023-01-13T03:21:05.808Z,99931.88
2023-01-13T03:23:48.404Z,99928.34
2023-01-13T03:26:19.936Z,99936.97
2023-01-13T03:28:54.943Z,99925.84
2023-01-13T03:31:29.117Z,99943.19
2023-01-13T03:34:03.606Z,99931.94
2023-01-13T03:36:35.351Z,99936.41
2023-01-13T03:39:10.302Z,99931.13
2023-01-13T03:41:45.474Z,99935.56
2023-01-13T03:44:22.844Z,99942.47
2023-01-13T03:47:01.426Z,99943.25
2023-01-13T03:49:37.629Z,99925.03
2023-01-13T03:52:10.376Z,99936.38
2023-01-13T03:54:45.374Z,99934.50
2023-01-13T03:57:17.087Z,99932.75
2023-01-13T03:59:51.635Z,99940.53
2023-01-13T04:02:28.638Z,99938.00
2023-01-13T04:05:01.211Z,99933.53
2023-01-13T04:07:41.076Z,99930.91
2023-01-13T04:10:12.001Z,99929.13
2023-01-13T04:13:04.214Z,99923.03
2023-01-13T04:15:39.208Z,99929.19
2023-01-13T04:18:15.905Z,99925.72
2023-01-13T04:20:48.384Z,99932.66
2023-01-13T04:23:17.500Z,99924.94
2023-01-13T04:25:47.285Z,99924.91
2023-01-13T04:28:16.470Z,99921.44
2023-01-13T04:30:45.571Z,99925.81
2023-01-13T04:33:15.431Z,99929.25
2023-01-13T04:35:46.069Z,99938.66
2023-01-13T04:38:16.894Z,99934.47
2023-01-13T04:40:45.634Z,99938.78
2023-01-13T04:43:15.582Z,99932.69
2023-01-13T04:45:44.114Z,99938.81
2023-01-13T04:48:13.161Z,99927.63
2023-01-13T04:50:41.738Z,99933.72
2023-01-13T04:53:12.049Z,99936.31
2023-01-13T04:55:40.358Z,99935.31
2023-01-13T04:58:11.236Z,99944.84
2023-01-13T05:00:40.053Z,99943.88
2023-01-13T05:03:08.478Z,99951.72
2023-01-13T05:05:37.873Z,99947.28
2023-01-13T05:08:06.786Z,99946.41
2023-01-13T05:10:36.563Z,99954.34
2023-01-13T05:13:22.701Z,99955.22
2023-01-13T05:16:11.265Z,99962.13
2023-01-13T05:18:40.294Z,99964.00
2023-01-13T05:21:28.634Z,99965.78
2023-01-13T05:24:14.301Z,99969.97
2023-01-13T05:26:43.999Z,99959.72
2023-01-13T05:29:12.324Z,99958.78
2023-01-13T05:31:40.665Z,99962.16
2023-01-13T05:34:08.976Z,99957.75
2023-01-13T05:36:37.306Z,99961.22
2023-01-13T05:39:06.113Z,99965.34
2023-01-13T05:41:52.240Z,99967.28
2023-01-13T05:44:22.024Z,99961.94
2023-01-13T05:46:50.844Z,99948.31
2023-01-13T05:49:19.193Z,99955.16
2023-01-13T05:51:47.515Z,99949.00
2023-01-13T05:54:16.037Z,99961.31
2023-01-13T05:56:44.353Z,99963.78
2023-01-13T05:59:12.838Z,99975.19
2023-01-13T06:01:42.500Z,99974.28
2023-01-13T06:04:11.033Z,99984.66
2023-01-13T06:06:39.859Z,99982.16
2023-01-13T06:09:08.208Z,99990.16
2023-01-13T06:11:36.516Z,99986.63
2023-01-13T06:14:05.080Z,99985.91
2023-01-13T06:16:33.464Z,99982.53
2023-01-13T06:19:03.223Z,99985.00
2023-01-13T06:21:33.184Z,99990.25
2023-01-13T06:24:02.345Z,99991.28
2023-01-13T06:26:33.414Z,99997.31
2023-01-13T06:29:01.737Z,99997.19
2023-01-13T06:31:31.144Z,100000.69
2023-01-13T06:34:03.149Z,99995.50
2023-01-13T06:36:38.875Z,99993.63
2023-01-13T06:39:08.888Z,99994.53
2023-01-13T06:41:54.582Z,99996.25
2023-01-13T06:44:24.660Z,99993.69
2023-01-13T06:46:53.494Z,99994.59
2023-01-13T06:49:21.992Z,99985.16
2023-01-13T06:51:51.748Z,99971.31
2023-01-13T06:54:20.061Z,99958.19
2023-01-13T06:56:48.418Z,99936.41
2023-01-13T06:59:16.881Z,99977.91
2023-01-13T07:01:45.371Z,99985.75
2023-01-13T07:04:14.665Z,99978.84
2023-01-13T07:06:42.964Z,99983.94
2023-01-13T07:09:13.976Z,99982.41
2023-01-13T07:11:42.303Z,99984.97
2023-01-13T07:14:28.211Z,99983.94
2023-01-13T07:16:56.587Z,99982.31
2023-01-13T07:19:24.955Z,99979.88
2023-01-13T07:21:53.831Z,99983.25
2023-01-13T07:24:23.525Z,99969.38
2023-01-13T07:26:52.245Z,99941.59
2023-01-13T07:29:20.605Z,99939.91
2023-01-13T07:31:50.186Z,99962.41
2023-01-13T07:34:18.807Z,99982.25
2023-01-13T07:36:47.176Z,99973.66
2023-01-13T07:39:15.728Z,99944.22
2023-01-13T07:42:02.708Z,99985.81
2023-01-13T07:44:31.094Z,99988.63
2023-01-13T07:46:59.384Z,99962.56
2023-01-13T07:49:27.890Z,99995.53
2023-01-13T07:51:56.228Z,99990.19
2023-01-13T07:54:39.102Z,99998.78
2023-01-13T07:57:09.867Z,99998.91
2023-01-13T07:59:38.181Z,99994.56
2023-01-13T08:02:06.596Z,99993.63
2023-01-13T08:04:35.520Z,99998.84
2023-01-13T08:07:04.878Z,99995.34
2023-01-13T08:09:33.226Z,100011.00
2023-01-13T08:12:15.445Z,100030.88
2023-01-13T08:14:45.193Z,100040.31
2023-01-13T08:17:13.612Z,100030.84
2023-01-13T08:19:41.946Z,100030.00
2023-01-13T08:22:10.281Z,100037.75
2023-01-13T08:24:38.806Z,100045.53
2023-01-13T08:27:07.261Z,100060.06
2023-01-13T08:29:35.667Z,100067.94
2023-01-13T08:32:05.849Z,100055.72
2023-01-13T08:34:34.258Z,100046.16
2023-01-13T08:37:02.597Z,100038.34
2023-01-13T08:39:31.142Z,100029.56
2023-01-13T08:41:59.453Z,100034.78
2023-01-13T08:44:30.829Z,100032.22
2023-01-13T08:46:59.642Z,100031.97
2023-01-13T08:49:29.398Z,100026.00
2023-01-13T08:51:58.471Z,100021.63
2023-01-13T08:54:26.837Z,100056.25
2023-01-13T08:56:55.191Z,100072.72
2023-01-13T08:59:23.604Z,100080.47
2023-01-13T09:01:52.291Z,100066.72
2023-01-13T09:04:23.527Z,100077.06
2023-01-13T09:06:53.345Z,100083.06
2023-01-13T09:09:21.839Z,100059.78
2023-01-13T09:12:09.519Z,100033.72
2023-01-13T09:14:39.552Z,99988.75
2023-01-13T09:17:08.726Z,99915.06
2023-01-13T09:19:37.660Z,99924.53
2023-01-13T09:22:07.577Z,99999.81
2023-01-13T09:24:35.913Z,100032.78
2023-01-13T09:27:04.434Z,100043.22
2023-01-13T09:29:32.837Z,100064.78
2023-01-13T09:32:01.235Z,100057.84
2023-01-13T09:34:47.011Z,100055.41
2023-01-13T09:37:17.030Z,100046.78
2023-01-13T09:39:45.448Z,100040.72
2023-01-13T09:42:38.724Z,100030.34
2023-01-13T09:45:10.121Z,100026.16
2023-01-13T09:47:45.107Z,100026.13
2023-01-13T09:50:24.837Z,100024.28
2023-01-13T09:52:54.826Z,100025.03
2023-01-13T09:55:30.230Z,100043.25
2023-01-13T09:57:58.716Z,100047.50
2023-01-13T10:00:31.681Z,100041.41
2023-01-13T10:03:14.681Z,100048.34
2023-01-13T10:05:49.619Z,100046.50
2023-01-13T10:08:25.347Z,100051.59
2023-01-13T10:10:56.996Z,100056.03
2023-01-13T10:13:27.167Z,100057.75
2023-01-13T10:16:19.750Z,100070.63
2023-01-13T10:19:02.004Z,100067.97
2023-01-13T10:21:52.097Z,100070.78
2023-01-13T10:24:30.607Z,100069.72
2023-01-13T10:27:05.717Z,100068.06
2023-01-13T10:29:34.656Z,100058.31
2023-01-13T10:32:03.403Z,100064.25
2023-01-13T10:34:32.144Z,100060.47
2023-01-13T10:37:02.919Z,100061.25
2023-01-13T10:39:41.039Z,100063.72
2023-01-13T10:42:14.849Z,100062.84
2023-01-13T10:44:51.948Z,100061.84
2023-01-13T10:47:26.735Z,100056.53
2023-01-13T10:50:22.325Z,100060.88
2023-01-13T10:53:02.058Z,100071.44
2023-01-13T10:55:34.387Z,100061.13
2023-01-13T10:58:17.409Z,100067.16
2023-01-13T11:00:46.531Z,100064.56
2023-01-13T11:03:20.625Z,100061.03
2023-01-13T11:05:51.351Z,100053.22
2023-01-13T11:08:21.858Z,100059.31
2023-01-13T11:10:54.201Z,100055.09
2023-01-13T11:13:31.709Z,100056.78
2023-01-13T11:16:06.420Z,100064.78
2023-01-13T11:18:51.940Z,100067.63
2023-01-13T11:21:25.818Z,100057.59
2023-01-13T11:24:05.095Z,100054.63
2023-01-13T11:26:44.755Z,100059.06
2023-01-13T11:29:21.924Z,100076.66
2023-01-13T11:31:55.269Z,100065.38
2023-01-13T11:34:31.497Z,100056.09
2023-01-13T11:37:01.867Z,100059.75
2023-01-13T11:39:41.547Z,100063.38
2023-01-13T11:42:25.070Z,100052.34
2023-01-13T11:45:03.665Z,100054.19
2023-01-13T11:47:33.566Z,100052.56
2023-01-13T11:50:03.122Z,100057.72
2023-01-13T11:52:48.678Z,100054.28
2023-01-13T11:55:28.214Z,100052.69
2023-01-13T11:58:15.109Z,100051.06
2023-01-13T12:01:10.376Z,100065.88
2023-01-13T12:03:43.378Z,100055.97
2023-01-13T12:06:20.915Z,100061.25
2023-01-13T12:09:25.600Z,100057.91
2023-01-13T12:12:22.700Z,100062.97
2023-01-13T12:15:08.886Z,100074.97
2023-01-13T12:17:48.373Z,100068.81
2023-01-13T12:20:34.539Z,100055.63
2023-01-13T12:23:12.563Z,100054.75
2023-01-13T12:25:45.490Z,100061.41
2023-01-13T12:28:18.881Z,100058.78
2023-01-13T12:30:53.057Z,100069.94
2023-01-13T12:33:30.492Z,100082.91
2023-01-13T12:36:06.763Z,100070.59
2023-01-13T12:38:38.236Z,100065.47
2023-01-13T12:41:17.456Z,100071.41
2023-01-13T12:44:07.173Z,100066.44
2023-01-13T12:46:46.849Z,100103.63
2023-01-13T12:49:24.417Z,100081.34
2023-01-13T12:52:19.787Z,100104.19
2023-01-13T12:55:20.905Z,100085.00
2023-01-13T12:58:03.867Z,100104.00
2023-01-13T13:00:38.047Z,100094.41
2023-01-13T13:03:23.978Z,100100.47
2023-01-13T13:06:02.251Z,100083.09
2023-01-13T13:08:48.136Z,100083.13
2023-01-13T13:12:09.672Z,100090.91
2023-01-13T13:15:22.364Z,100091.88
2023-01-13T13:18:21.056Z,100080.81
2023-01-13T13:21:03.817Z,100101.78
2023-01-13T13:24:03.246Z,100086.94
2023-01-13T13:26:37.957Z,100093.69
2023-01-13T13:29:31.835Z,100097.06
2023-01-13T13:32:30.837Z,100107.44
2023-01-13T13:35:19.486Z,100104.38
2023-01-13T13:38:18.697Z,100097.69
2023-01-13T13:41:06.405Z,100107.97
2023-01-13T13:43:59.072Z,100105.31
2023-01-13T13:46:48.162Z,100117.72
2023-01-13T13:49:18.039Z,100115.31
2023-01-13T13:51:52.923Z,100120.50
2023-01-13T13:54:23.943Z,100117.53
2023-01-13T13:56:53.140Z,100112.09
2023-01-13T13:59:24.461Z,100116.41
2023-01-13T14:02:01.416Z,100107.63
2023-01-13T14:04:32.429Z,100108.47
2023-01-13T14:07:04.473Z,100109.06
2023-01-13T14:09:45.099Z,100107.09
2023-01-13T14:12:18.849Z,100113.03
2023-01-13T14:14:48.334Z,100123.38
2023-01-13T14:17:24.847Z,100126.66
2023-01-13T14:19:54.801Z,100133.47
2023-01-13T14:22:23.413Z,100124.78
2023-01-13T14:24:55.651Z,100132.75
2023-01-13T14:27:27.515Z,100124.75
2023-01-13T14:29:58.304Z,100115.25
2023-01-13T14:32:36.062Z,100124.03
2023-01-13T14:35:07.256Z,100123.78
2023-01-13T14:37:39.514Z,100134.19
2023-01-13T14:40:53.235Z,100134.28
2023-01-13T14:43:25.943Z,100124.84
2023-01-13T14:45:57.635Z,100122.97
2023-01-13T14:48:35.767Z,100129.94
2023-01-13T14:51:06.804Z,100123.00
2023-01-13T14:53:40.651Z,100118.81
2023-01-13T14:56:43.210Z,100123.91
2023-01-13T14:59:51.857Z,100140.50
2023-01-13T15:02:50.090Z,100133.44
2023-01-13T15:05:31.699Z,100132.47
2023-01-13T15:08:03.359Z,100134.19
2023-01-13T15:10:33.842Z,100141.13
2023-01-13T15:13:04.929Z,100142.75
2023-01-13T15:15:36.516Z,100141.03
2023-01-13T15:18:14.627Z,100140.03
2023-01-13T15:20:43.773Z,100139.13
2023-01-13T15:23:12.490Z,100145.75
2023-01-13T15:25:42.577Z,100143.22
2023-01-13T15:28:18.897Z,100138.69
2023-01-13T15:30:47.929Z,100156.97
2023-01-13T15:33:18.177Z,100149.06
2023-01-13T15:35:48.824Z,100162.09
2023-01-13T15:38:19.338Z,100152.63
2023-01-13T15:40:48.345Z,100159.41
2023-01-13T15:43:38.554Z,100165.25
2023-01-13T15:46:33.312Z,100171.00
2023-01-13T15:49:10.212Z,100171.31
2023-01-13T15:51:38.961Z,100165.06
2023-01-13T15:54:07.922Z,100170.13
2023-01-13T15:56:39.209Z,100165.78
2023-01-13T15:59:16.604Z,100168.25
2023-01-13T16:01:45.632Z,100163.84
2023-01-13T16:04:15.509Z,100175.88
2023-01-13T16:06:50.161Z,100174.22
2023-01-13T16:09:18.576Z,100180.16
2023-01-13T16:11:47.180Z,100182.66
2023-01-13T16:14:15.551Z,100180.75
2023-01-13T16:16:43.991Z,100183.56
2023-01-13T16:19:13.383Z,100198.16
2023-01-13T16:21:43.212Z,100191.91
2023-01-13T16:24:11.615Z,100197.81
2023-01-13T16:26:39.928Z,100200.63
2023-01-13T16:29:09.532Z,100205.03
2023-01-13T16:31:38.154Z,100208.38
2023-01-13T16:34:07.174Z,100210.84
2023-01-13T16:36:36.992Z,100216.19
2023-01-13T16:39:21.433Z,100215.31
2023-01-13T16:41:49.903Z,100230.91
2023-01-13T16:44:18.369Z,100212.81
2023-01-13T16:46:47.697Z,100224.94
2023-01-13T16:49:17.426Z,100236.34
2023-01-13T16:51:45.930Z,100230.22
2023-01-13T16:54:15.617Z,100231.03
2023-01-13T16:56:44.540Z,100244.69
2023-01-13T16:59:14.725Z,100237.47
2023-01-13T17:01:44.823Z,100239.97
2023-01-13T17:04:17.042Z,100254.75
2023-01-13T17:06:51.979Z,100249.34
2023-01-13T17:09:23.792Z,100258.78
2023-01-13T17:11:52.786Z,100262.41
2023-01-13T17:14:23.291Z,100264.69
2023-01-13T17:16:53.958Z,100264.44
2023-01-13T17:19:24.160Z,100268.88
2023-01-13T17:21:52.546Z,100267.84
2023-01-13T17:24:24.699Z,100279.97
2023-01-13T17:26:53.054Z,100274.00
2023-01-13T17:29:23.028Z,100273.75
2023-01-13T17:31:52.233Z,100282.41
2023-01-13T17:34:21.901Z,100283.88
2023-01-13T17:36:50.498Z,100282.97
2023-01-13T17:39:21.492Z,100295.09
2023-01-13T17:41:51.619Z,100293.25
2023-01-13T17:44:22.143Z,100292.16
2023-01-13T17:46:51.048Z,100292.22
2023-01-13T17:49:22.633Z,100300.69
2023-01-13T17:51:51.559Z,100301.50
2023-01-13T17:54:20.424Z,100303.31
2023-01-13T17:56:48.760Z,100315.66
2023-01-13T17:59:20.646Z,100312.63
2023-01-13T18:01:49.257Z,100304.94
2023-01-13T18:04:19.183Z,100311.03
2023-01-13T18:06:48.510Z,100307.47
2023-01-13T18:09:17.885Z,100313.47
2023-01-13T18:11:47.409Z,100311.41
2023-01-13T18:14:15.882Z,100317.66
2023-01-13T18:16:45.752Z,100315.91
2023-01-13T18:19:31.632Z,100320.16
2023-01-13T18:22:17.339Z,100321.13
2023-01-13T18:25:03.132Z,100324.00
2023-01-13T18:27:34.523Z,100324.09
2023-01-13T18:30:04.042Z,100329.63
2023-01-13T18:32:34.858Z,100335.91
2023-01-13T18:35:06.933Z,100339.56
2023-01-13T18:37:38.512Z,100320.53
2023-01-13T18:40:09.235Z,100337.91
2023-01-13T18:42:54.136Z,100336.28
2023-01-13T18:45:25.226Z,100346.88
2023-01-13T18:47:56.932Z,100356.50
2023-01-13T18:50:25.327Z,100345.06
2023-01-13T18:52:54.109Z,100343.78
2023-01-13T18:55:22.719Z,100348.84
2023-01-13T18:57:51.577Z,100347.72
2023-01-13T19:00:21.634Z,100354.63
2023-01-13T19:05:38.223Z,100354.66
2023-01-13T19:08:07.186Z,100362.19
2023-01-13T19:10:36.528Z,100366.41
2023-01-13T19:13:05.296Z,100361.97
2023-01-13T19:15:33.833Z,100371.59
2023-01-13T19:18:02.174Z,100370.91
2023-01-13T19:20:30.530Z,100372.56
2023-01-13T19:23:00.221Z,100367.84
2023-01-13T19:25:28.615Z,100381.53
2023-01-13T19:27:56.918Z,100371.28
2023-01-13T19:30:25.286Z,100376.59
2023-01-13T19:32:53.674Z,100389.66
2023-01-13T19:35:21.998Z,100388.75
2023-01-13T19:37:50.381Z,100399.41
2023-01-13T19:40:20.291Z,100402.91
2023-01-13T19:43:06.152Z,100402.91
2023-01-13T19:45:36.145Z,100397.66
2023-01-13T19:48:05.829Z,100407.31
2023-01-13T19:50:38.569Z,100404.69
2023-01-13T19:53:07.333Z,100408.88
2023-01-13T19:55:37.038Z,100408.97
2023-01-13T19:58:05.546Z,100418.47
2023-01-13T20:00:34.845Z,100417.50
2023-01-13T20:03:06.902Z,100418.28
2023-01-13T20:05:35.325Z,100431.47
2023-01-13T20:08:03.685Z,100432.28
2023-01-13T20:10:32.089Z,100432.19
2023-01-13T20:13:01.840Z,100432.97
2023-01-13T20:15:30.436Z,100457.19
2023-01-13T20:18:00.486Z,100443.59
2023-01-13T20:20:28.813Z,100435.47
2023-01-13T20:22:58.198Z,100447.56
2023-01-13T20:25:28.591Z,100449.41
2023-01-13T20:27:58.473Z,100453.63
2023-01-13T20:30:28.190Z,100473.97
2023-01-13T20:32:56.506Z,100480.13
2023-01-13T20:35:29.561Z,100469.03
2023-01-13T20:37:58.268Z,100459.34
2023-01-13T20:40:26.614Z,100474.84
2023-01-13T20:42:54.660Z,100471.44
2023-01-13T20:45:23.381Z,100475.75
2023-01-13T20:47:53.087Z,100463.56
2023-01-13T20:50:21.939Z,100468.06
2023-01-13T20:52:52.478Z,100480.91
2023-01-13T20:55:20.806Z,100478.38
2023-01-13T20:57:50.303Z,100472.22
2023-01-13T21:00:19.749Z,100473.09
2023-01-13T21:02:48.139Z,100470.56
2023-01-13T21:05:18.096Z,100467.06
2023-01-13T21:07:46.477Z,100480.03
2023-01-13T21:10:14.985Z,100479.13
2023-01-13T21:13:00.993Z,100485.13
2023-01-13T21:15:29.436Z,100495.81
2023-01-13T21:18:15.168Z,100487.06
2023-01-13T21:20:45.110Z,100483.38
2023-01-13T21:23:13.453Z,100483.38
2023-01-13T21:25:41.784Z,100479.75
2023-01-13T21:28:11.689Z,100509.09
2023-01-13T21:30:40.372Z,100492.47
2023-01-13T21:33:09.207Z,100504.69
2023-01-13T21:35:40.762Z,100498.44
2023-01-13T21:38:11.719Z,100513.97
2023-01-13T21:40:40.027Z,100523.31
2023-01-13T21:43:30.591Z,100506.72
2023-01-13T21:46:16.402Z,100510.94
2023-01-13T21:48:44.799Z,100518.84
2023-01-13T21:51:13.080Z,100511.81
2023-01-13T21:53:42.850Z,100499.59
2023-01-13T21:56:11.192Z,100504.97
2023-01-13T21:58:40.038Z,100511.00
2023-01-13T22:01:09.764Z,100515.22
2023-01-13T22:03:54.681Z,100512.44
2023-01-13T22:06:23.363Z,100521.13
2023-01-13T22:08:55.483Z,100527.34
2023-01-13T22:11:24.183Z,100525.59
2023-01-13T22:14:09.284Z,100533.22
2023-01-13T22:16:39.811Z,100534.72
2023-01-13T22:19:09.536Z,100528.69
2023-01-13T22:21:38.015Z,100538.28
2023-01-13T22:24:08.142Z,100538.97
2023-01-13T22:26:36.573Z,100539.19
2023-01-13T22:29:05.003Z,100531.41
2023-01-13T22:31:33.436Z,100568.50
2023-01-13T22:34:01.859Z,100553.88
2023-01-13T22:36:30.457Z,100556.34
2023-01-13T22:39:00.436Z,100568.16
2023-01-13T22:41:30.301Z,100564.59
2023-01-13T22:43:58.632Z,100568.56
2023-01-13T22:46:27.010Z,100579.94
2023-01-13T22:48:55.894Z,100561.88
2023-01-13T22:51:25.105Z,100578.31
2023-01-13T22:53:53.650Z,100577.59
2023-01-13T22:56:24.387Z,100577.97
2023-01-13T22:58:55.985Z,100576.44
2023-01-13T23:01:25.579Z,100589.53
2023-01-13T23:03:54.343Z,100603.75
2023-01-13T23:06:25.164Z,100590.00
2023-01-13T23:08:54.271Z,100581.97
2023-01-13T23:11:25.048Z,100588.22
2023-01-13T23:13:59.441Z,100592.47
2023-01-13T23:16:28.316Z,100598.34
2023-01-13T23:18:57.001Z,100596.31
2023-01-13T23:21:27.043Z,100599.81
2023-01-13T23:23:58.449Z,100593.63
2023-01-13T23:26:27.802Z,100594.72
2023-01-13T23:29:01.386Z,100608.41
2023-01-13T23:31:29.816Z,100601.69
2023-01-13T23:33:58.839Z,100608.41
2023-01-13T23:36:29.039Z,100599.81
2023-01-13T23:38:59.179Z,100605.19
2023-01-13T23:41:29.410Z,100605.25
2023-01-13T23:44:00.646Z,100617.09
2023-01-13T23:46:30.304Z,100622.13
2023-01-13T23:48:58.771Z,100616.88
2023-01-13T23:51:29.896Z,100618.50
2023-01-13T23:53:59.497Z,100618.19
2023-01-13T23:56:30.485Z,100620.03
2023-01-13T23:59:00.436Z,100619.00
